logo
Search for airport 
image banner adimage banner adimage banner ad
image banner ad

SCRD - Rodelillo

Located in Valparaiso, Chile

ICAO - SCRD, IATA - VAP

Data provided by Airmate  

General information

Coordinates: S33°4'6" W71°33'27"
Elevation is 1100 feet MSL.
Magnetic variation is 2° East
View others Airports in Valparaíso

Operational data

Special qualification required
Current time UTC:
Current local time:
Weather
METAR: SCRD 281300Z 34004KT 280V040 9999 FEW012 17/13 Q1014
View NOTAMs / SUP AIP / TFR affecting this airport [VIEW]
Communications frequencies: [VIEW]

Runways:

RWY identifierQFULength (ft)Width (ft)SurfaceLDA (ft)
0110°279765ASPH
19190°279765ASPH

Airport contact information

Address: Valparaiso Chile

Other aviation service providers

Aviation club (not for profit)

Club Aéreo Costa Sol

Club Aéreo Costa Sol

Club Aéreo Valparaiso Y Viña De Mar

Club Aéreo Valparaiso Y Viña De Mar
clubaereovalparaiso@gmail.com+56322611677
+56981591320

Satellite view of SCRD